sensor_id;sensor_type;location;lat;lon;timestamp;pressure;altitude;pressure_sealevel;temperature
19666;BMP180;9980;51.020;7.772;2022-10-18T00:00:53;98479.00;;;20.10
19666;BMP180;9980;51.020;7.772;2022-10-18T00:03:21;98467.00;;;20.10
19666;BMP180;9980;51.020;7.772;2022-10-18T00:05:48;98460.00;;;20.10
19666;BMP180;9980;51.020;7.772;2022-10-18T00:08:17;98468.00;;;20.10
19666;BMP180;9980;51.020;7.772;2022-10-18T00:10:45;98467.00;;;20.10
19666;BMP180;9980;51.020;7.772;2022-10-18T00:13:12;98450.00;;;20.10
19666;BMP180;9980;51.020;7.772;2022-10-18T00:15:39;98458.00;;;20.10
19666;BMP180;9980;51.020;7.772;2022-10-18T00:18:06;98446.00;;;20.10
19666;BMP180;9980;51.020;7.772;2022-10-18T00:20:33;98463.00;;;20.10
19666;BMP180;9980;51.020;7.772;2022-10-18T00:22:59;98464.00;;;20.10
19666;BMP180;9980;51.020;7.772;2022-10-18T00:25:26;98452.00;;;20.00
19666;BMP180;9980;51.020;7.772;2022-10-18T00:27:53;98457.00;;;20.00
19666;BMP180;9980;51.020;7.772;2022-10-18T00:30:20;98459.00;;;20.00
19666;BMP180;9980;51.020;7.772;2022-10-18T00:32:47;98447.00;;;20.00
19666;BMP180;9980;51.020;7.772;2022-10-18T00:35:14;98466.00;;;20.00
19666;BMP180;9980;51.020;7.772;2022-10-18T00:37:41;98463.00;;;20.00
19666;BMP180;9980;51.020;7.772;2022-10-18T00:40:09;98478.00;;;20.00
19666;BMP180;9980;51.020;7.772;2022-10-18T00:42:37;98456.00;;;20.00
19666;BMP180;9980;51.020;7.772;2022-10-18T00:45:21;98471.00;;;20.00
19666;BMP180;9980;51.020;7.772;2022-10-18T00:47:59;98466.00;;;20.00
19666;BMP180;9980;51.020;7.772;2022-10-18T00:50:31;98450.00;;;20.00
19666;BMP180;9980;51.020;7.772;2022-10-18T00:53:04;98457.00;;;20.00
19666;BMP180;9980;51.020;7.772;2022-10-18T00:55:33;98455.00;;;20.00
19666;BMP180;9980;51.020;7.772;2022-10-18T00:58:01;98454.00;;;20.00
19666;BMP180;9980;51.020;7.772;2022-10-18T01:00:29;98450.00;;;20.00
19666;BMP180;9980;51.020;7.772;2022-10-18T01:02:57;98455.00;;;20.00
19666;BMP180;9980;51.020;7.772;2022-10-18T01:05:25;98443.00;;;20.00
19666;BMP180;9980;51.020;7.772;2022-10-18T01:27:46;98445.00;;;19.90
19666;BMP180;9980;51.020;7.772;2022-10-18T01:30:46;98434.00;;;19.90
19666;BMP180;9980;51.020;7.772;2022-10-18T01:33:32;98433.00;;;19.90
19666;BMP180;9980;51.020;7.772;2022-10-18T01:36:20;98430.00;;;19.90
19666;BMP180;9980;51.020;7.772;2022-10-18T01:38:53;98428.00;;;19.90
19666;BMP180;9980;51.020;7.772;2022-10-18T01:41:24;98431.00;;;19.90
19666;BMP180;9980;51.020;7.772;2022-10-18T01:43:58;98422.00;;;19.90
19666;BMP180;9980;51.020;7.772;2022-10-18T01:46:28;98424.00;;;19.90
19666;BMP180;9980;51.020;7.772;2022-10-18T01:48:56;98413.00;;;19.90
19666;BMP180;9980;51.020;7.772;2022-10-18T01:51:30;98424.00;;;19.90
19666;BMP180;9980;51.020;7.772;2022-10-18T01:53:58;98416.00;;;19.90
19666;BMP180;9980;51.020;7.772;2022-10-18T01:56:56;98424.00;;;19.90
19666;BMP180;9980;51.020;7.772;2022-10-18T02:05:42;98430.00;;;19.80
19666;BMP180;9980;51.020;7.772;2022-10-18T02:08:36;98427.00;;;19.80
19666;BMP180;9980;51.020;7.772;2022-10-18T02:11:10;98415.00;;;19.80
19666;BMP180;9980;51.020;7.772;2022-10-18T02:13:46;98414.00;;;19.80
19666;BMP180;9980;51.020;7.772;2022-10-18T02:16:19;98428.00;;;19.80
19666;BMP180;9980;51.020;7.772;2022-10-18T02:19:03;98418.00;;;19.80
19666;BMP180;9980;51.020;7.772;2022-10-18T02:21:32;98411.00;;;19.80
19666;BMP180;9980;51.020;7.772;2022-10-18T02:24:01;98415.00;;;19.90
19666;BMP180;9980;51.020;7.772;2022-10-18T02:26:29;98410.00;;;19.90
19666;BMP180;9980;51.020;7.772;2022-10-18T02:28:56;98409.00;;;19.90
19666;BMP180;9980;51.020;7.772;2022-10-18T02:31:26;98410.00;;;19.90
19666;BMP180;9980;51.020;7.772;2022-10-18T02:34:20;98409.00;;;19.80
19666;BMP180;9980;51.020;7.772;2022-10-18T02:36:56;98403.00;;;19.80
19666;BMP180;9980;51.020;7.772;2022-10-18T02:39:45;98411.00;;;19.80
19666;BMP180;9980;51.020;7.772;2022-10-18T02:42:14;98405.00;;;19.80
19666;BMP180;9980;51.020;7.772;2022-10-18T02:44:42;98380.00;;;19.90
19666;BMP180;9980;51.020;7.772;2022-10-18T02:47:10;98405.00;;;19.80
19666;BMP180;9980;51.020;7.772;2022-10-18T02:49:37;98400.00;;;19.80
19666;BMP180;9980;51.020;7.772;2022-10-18T02:52:04;98384.00;;;19.80
19666;BMP180;9980;51.020;7.772;2022-10-18T02:54:31;98391.00;;;19.80
19666;BMP180;9980;51.020;7.772;2022-10-18T02:56:58;98412.00;;;19.80
19666;BMP180;9980;51.020;7.772;2022-10-18T02:59:25;98391.00;;;19.80
19666;BMP180;9980;51.020;7.772;2022-10-18T03:01:52;98401.00;;;19.80
19666;BMP180;9980;51.020;7.772;2022-10-18T03:04:19;98412.00;;;19.80
19666;BMP180;9980;51.020;7.772;2022-10-18T03:06:46;98410.00;;;19.80
19666;BMP180;9980;51.020;7.772;2022-10-18T03:09:12;98409.00;;;19.80
19666;BMP180;9980;51.020;7.772;2022-10-18T03:11:39;98403.00;;;19.80
19666;BMP180;9980;51.020;7.772;2022-10-18T03:14:06;98399.00;;;19.80
19666;BMP180;9980;51.020;7.772;2022-10-18T03:16:33;98381.00;;;19.80
19666;BMP180;9980;51.020;7.772;2022-10-18T03:19:00;98388.00;;;19.80
19666;BMP180;9980;51.020;7.772;2022-10-18T03:21:27;98405.00;;;19.80
19666;BMP180;9980;51.020;7.772;2022-10-18T03:23:54;98389.00;;;19.80
19666;BMP180;9980;51.020;7.772;2022-10-18T03:26:21;98385.00;;;19.80
19666;BMP180;9980;51.020;7.772;2022-10-18T03:28:48;98384.00;;;19.80
19666;BMP180;9980;51.020;7.772;2022-10-18T03:31:15;98377.00;;;19.80
19666;BMP180;9980;51.020;7.772;2022-10-18T03:33:43;98391.00;;;19.80
19666;BMP180;9980;51.020;7.772;2022-10-18T03:36:10;98403.00;;;19.80
19666;BMP180;9980;51.020;7.772;2022-10-18T03:38:37;98404.00;;;19.80
19666;BMP180;9980;51.020;7.772;2022-10-18T03:41:04;98411.00;;;19.80
19666;BMP180;9980;51.020;7.772;2022-10-18T03:43:31;98419.00;;;19.80
19666;BMP180;9980;51.020;7.772;2022-10-18T03:45:59;98402.00;;;19.80
19666;BMP180;9980;51.020;7.772;2022-10-18T03:48:26;98399.00;;;19.80
19666;BMP180;9980;51.020;7.772;2022-10-18T03:50:53;98413.00;;;19.80
19666;BMP180;9980;51.020;7.772;2022-10-18T03:53:20;98401.00;;;19.80
19666;BMP180;9980;51.020;7.772;2022-10-18T03:55:54;98406.00;;;19.80
19666;BMP180;9980;51.020;7.772;2022-10-18T03:58:22;98402.00;;;19.80
19666;BMP180;9980;51.020;7.772;2022-10-18T04:00:51;98413.00;;;19.80
19666;BMP180;9980;51.020;7.772;2022-10-18T04:03:20;98415.00;;;19.70
19666;BMP180;9980;51.020;7.772;2022-10-18T04:05:48;98405.00;;;19.70
19666;BMP180;9980;51.020;7.772;2022-10-18T04:08:16;98412.00;;;19.70
19666;BMP180;9980;51.020;7.772;2022-10-18T04:10:44;98416.00;;;19.70
19666;BMP180;9980;51.020;7.772;2022-10-18T04:13:11;98426.00;;;19.70
19666;BMP180;9980;51.020;7.772;2022-10-18T04:15:38;98405.00;;;19.70
19666;BMP180;9980;51.020;7.772;2022-10-18T04:18:05;98416.00;;;19.70
19666;BMP180;9980;51.020;7.772;2022-10-18T04:20:32;98409.00;;;19.70
19666;BMP180;9980;51.020;7.772;2022-10-18T04:22:59;98409.00;;;19.70
19666;BMP180;9980;51.020;7.772;2022-10-18T04:25:25;98410.00;;;19.70
19666;BMP180;9980;51.020;7.772;2022-10-18T04:27:54;98418.00;;;19.70
19666;BMP180;9980;51.020;7.772;2022-10-18T04:30:21;98402.00;;;19.70
19666;BMP180;9980;51.020;7.772;2022-10-18T04:32:48;98435.00;;;19.70
19666;BMP180;9980;51.020;7.772;2022-10-18T04:35:15;98413.00;;;19.70
19666;BMP180;9980;51.020;7.772;2022-10-18T04:37:42;98428.00;;;19.60
19666;BMP180;9980;51.020;7.772;2022-10-18T04:40:10;98427.00;;;19.70
19666;BMP180;9980;51.020;7.772;2022-10-18T04:42:37;98435.00;;;19.60
19666;BMP180;9980;51.020;7.772;2022-10-18T04:45:04;98426.00;;;19.60
19666;BMP180;9980;51.020;7.772;2022-10-18T04:47:32;98430.00;;;19.60
19666;BMP180;9980;51.020;7.772;2022-10-18T04:49:59;98432.00;;;19.60
19666;BMP180;9980;51.020;7.772;2022-10-18T04:52:26;98425.00;;;19.60
19666;BMP180;9980;51.020;7.772;2022-10-18T04:54:53;98420.00;;;19.60
19666;BMP180;9980;51.020;7.772;2022-10-18T04:57:20;98418.00;;;19.60
19666;BMP180;9980;51.020;7.772;2022-10-18T04:59:46;98425.00;;;19.60
19666;BMP180;9980;51.020;7.772;2022-10-18T05:02:13;98423.00;;;19.60
19666;BMP180;9980;51.020;7.772;2022-10-18T05:04:40;98423.00;;;19.60
19666;BMP180;9980;51.020;7.772;2022-10-18T05:07:07;98420.00;;;19.60
19666;BMP180;9980;51.020;7.772;2022-10-18T05:09:34;98418.00;;;19.60
19666;BMP180;9980;51.020;7.772;2022-10-18T05:12:01;98419.00;;;19.50
19666;BMP180;9980;51.020;7.772;2022-10-18T05:14:28;98405.00;;;19.50
19666;BMP180;9980;51.020;7.772;2022-10-18T05:16:55;98402.00;;;19.50
19666;BMP180;9980;51.020;7.772;2022-10-18T05:19:22;98395.00;;;19.50
19666;BMP180;9980;51.020;7.772;2022-10-18T05:21:49;98390.00;;;19.50
19666;BMP180;9980;51.020;7.772;2022-10-18T05:24:16;98394.00;;;19.50
19666;BMP180;9980;51.020;7.772;2022-10-18T05:26:42;98406.00;;;19.50
19666;BMP180;9980;51.020;7.772;2022-10-18T05:29:09;98389.00;;;19.50
19666;BMP180;9980;51.020;7.772;2022-10-18T05:31:37;98388.00;;;19.50
19666;BMP180;9980;51.020;7.772;2022-10-18T05:34:03;98379.00;;;19.50
19666;BMP180;9980;51.020;7.772;2022-10-18T05:36:30;98399.00;;;19.50
19666;BMP180;9980;51.020;7.772;2022-10-18T05:38:57;98383.00;;;19.40
19666;BMP180;9980;51.020;7.772;2022-10-18T05:41:30;98406.00;;;19.40
19666;BMP180;9980;51.020;7.772;2022-10-18T05:43:57;98405.00;;;19.40
19666;BMP180;9980;51.020;7.772;2022-10-18T05:46:24;98411.00;;;19.40
19666;BMP180;9980;51.020;7.772;2022-10-18T05:48:51;98415.00;;;19.40
19666;BMP180;9980;51.020;7.772;2022-10-18T05:51:18;98423.00;;;19.40
19666;BMP180;9980;51.020;7.772;2022-10-18T05:53:45;98402.00;;;19.40
19666;BMP180;9980;51.020;7.772;2022-10-18T05:56:12;98417.00;;;19.40
19666;BMP180;9980;51.020;7.772;2022-10-18T05:58:41;98415.00;;;19.40
19666;BMP180;9980;51.020;7.772;2022-10-18T06:01:09;98416.00;;;19.30
19666;BMP180;9980;51.020;7.772;2022-10-18T06:03:36;98421.00;;;19.30
19666;BMP180;9980;51.020;7.772;2022-10-18T06:06:07;98420.00;;;19.30
19666;BMP180;9980;51.020;7.772;2022-10-18T06:08:35;98421.00;;;19.30
19666;BMP180;9980;51.020;7.772;2022-10-18T06:11:14;98437.00;;;19.30
19666;BMP180;9980;51.020;7.772;2022-10-18T06:13:47;98437.00;;;19.30
19666;BMP180;9980;51.020;7.772;2022-10-18T06:16:18;98428.00;;;19.30
19666;BMP180;9980;51.020;7.772;2022-10-18T06:18:52;98426.00;;;19.20
19666;BMP180;9980;51.020;7.772;2022-10-18T06:21:20;98428.00;;;19.20
19666;BMP180;9980;51.020;7.772;2022-10-18T06:23:53;98419.00;;;19.20
19666;BMP180;9980;51.020;7.772;2022-10-18T06:26:21;98428.00;;;19.20
19666;BMP180;9980;51.020;7.772;2022-10-18T06:28:48;98433.00;;;19.20
19666;BMP180;9980;51.020;7.772;2022-10-18T06:31:16;98427.00;;;19.20
19666;BMP180;9980;51.020;7.772;2022-10-18T06:33:43;98438.00;;;19.20
19666;BMP180;9980;51.020;7.772;2022-10-18T06:36:18;98441.00;;;19.20
19666;BMP180;9980;51.020;7.772;2022-10-18T06:38:45;98435.00;;;19.20
19666;BMP180;9980;51.020;7.772;2022-10-18T06:41:12;98445.00;;;19.20
19666;BMP180;9980;51.020;7.772;2022-10-18T06:43:40;98460.00;;;19.20
19666;BMP180;9980;51.020;7.772;2022-10-18T06:46:07;98466.00;;;19.20
19666;BMP180;9980;51.020;7.772;2022-10-18T06:48:35;98473.00;;;19.20
19666;BMP180;9980;51.020;7.772;2022-10-18T06:51:06;98474.00;;;19.20
19666;BMP180;9980;51.020;7.772;2022-10-18T06:53:38;98477.00;;;19.10
19666;BMP180;9980;51.020;7.772;2022-10-18T06:56:19;98459.00;;;19.10
19666;BMP180;9980;51.020;7.772;2022-10-18T06:58:45;98464.00;;;19.10
19666;BMP180;9980;51.020;7.772;2022-10-18T07:01:16;98464.00;;;19.10
19666;BMP180;9980;51.020;7.772;2022-10-18T07:03:45;98449.00;;;19.10
19666;BMP180;9980;51.020;7.772;2022-10-18T07:06:16;98466.00;;;19.10
19666;BMP180;9980;51.020;7.772;2022-10-18T07:08:45;98463.00;;;19.20
19666;BMP180;9980;51.020;7.772;2022-10-18T07:11:25;98449.00;;;19.10
19666;BMP180;9980;51.020;7.772;2022-10-18T07:13:59;98458.00;;;19.20
19666;BMP180;9980;51.020;7.772;2022-10-18T07:16:30;98477.00;;;19.20
19666;BMP180;9980;51.020;7.772;2022-10-18T07:18:57;98476.00;;;19.20
19666;BMP180;9980;51.020;7.772;2022-10-18T07:21:25;98484.00;;;19.20
19666;BMP180;9980;51.020;7.772;2022-10-18T07:23:52;98483.00;;;19.20
19666;BMP180;9980;51.020;7.772;2022-10-18T07:26:29;98492.00;;;19.20
19666;BMP180;9980;51.020;7.772;2022-10-18T07:29:01;98484.00;;;19.20
19666;BMP180;9980;51.020;7.772;2022-10-18T07:31:30;98468.00;;;19.20
19666;BMP180;9980;51.020;7.772;2022-10-18T07:33:57;98477.00;;;19.20
19666;BMP180;9980;51.020;7.772;2022-10-18T07:36:24;98482.00;;;19.20
19666;BMP180;9980;51.020;7.772;2022-10-18T07:38:52;98494.00;;;19.20
19666;BMP180;9980;51.020;7.772;2022-10-18T07:41:19;98507.00;;;19.20
19666;BMP180;9980;51.020;7.772;2022-10-18T07:43:49;98522.00;;;19.20
19666;BMP180;9980;51.020;7.772;2022-10-18T07:46:19;98507.00;;;19.20
19666;BMP180;9980;51.020;7.772;2022-10-18T07:48:47;98520.00;;;19.30
19666;BMP180;9980;51.020;7.772;2022-10-18T07:51:14;98512.00;;;19.30
19666;BMP180;9980;51.020;7.772;2022-10-18T07:53:42;98504.00;;;19.30
19666;BMP180;9980;51.020;7.772;2022-10-18T07:56:16;98517.00;;;19.30
19666;BMP180;9980;51.020;7.772;2022-10-18T07:58:50;98503.00;;;19.40
19666;BMP180;9980;51.020;7.772;2022-10-18T08:01:20;98499.00;;;19.40
19666;BMP180;9980;51.020;7.772;2022-10-18T08:03:47;98509.00;;;19.40
19666;BMP180;9980;51.020;7.772;2022-10-18T08:06:16;98508.00;;;19.40
19666;BMP180;9980;51.020;7.772;2022-10-18T08:08:45;98522.00;;;19.50
19666;BMP180;9980;51.020;7.772;2022-10-18T08:11:19;98522.00;;;19.50
19666;BMP180;9980;51.020;7.772;2022-10-18T08:13:47;98521.00;;;19.60
19666;BMP180;9980;51.020;7.772;2022-10-18T08:16:18;98534.00;;;19.60
19666;BMP180;9980;51.020;7.772;2022-10-18T08:18:46;98524.00;;;19.60
19666;BMP180;9980;51.020;7.772;2022-10-18T08:21:15;98534.00;;;19.70
19666;BMP180;9980;51.020;7.772;2022-10-18T08:23:42;98546.00;;;19.70
19666;BMP180;9980;51.020;7.772;2022-10-18T08:26:14;98530.00;;;19.70
19666;BMP180;9980;51.020;7.772;2022-10-18T08:28:42;98528.00;;;19.80
19666;BMP180;9980;51.020;7.772;2022-10-18T08:31:24;98542.00;;;19.80
19666;BMP180;9980;51.020;7.772;2022-10-18T08:33:54;98521.00;;;19.80
19666;BMP180;9980;51.020;7.772;2022-10-18T08:36:22;98547.00;;;19.80
19666;BMP180;9980;51.020;7.772;2022-10-18T08:38:49;98551.00;;;19.90
19666;BMP180;9980;51.020;7.772;2022-10-18T08:41:42;98552.00;;;19.90
19666;BMP180;9980;51.020;7.772;2022-10-18T08:44:28;98550.00;;;19.90
19666;BMP180;9980;51.020;7.772;2022-10-18T08:47:13;98559.00;;;19.90
19666;BMP180;9980;51.020;7.772;2022-10-18T08:49:48;98557.00;;;20.00
19666;BMP180;9980;51.020;7.772;2022-10-18T08:55:25;98578.00;;;20.00
19666;BMP180;9980;51.020;7.772;2022-10-18T08:57:52;98563.00;;;20.10
19666;BMP180;9980;51.020;7.772;2022-10-18T09:00:23;98574.00;;;20.10
19666;BMP180;9980;51.020;7.772;2022-10-18T09:06:02;98573.00;;;20.10
19666;BMP180;9980;51.020;7.772;2022-10-18T09:14:58;98583.00;;;20.20
19666;BMP180;9980;51.020;7.772;2022-10-18T09:20:46;98575.00;;;20.20
19666;BMP180;9980;51.020;7.772;2022-10-18T09:23:43;98586.00;;;20.20
19666;BMP180;9980;51.020;7.772;2022-10-18T09:26:18;98587.00;;;20.30
19666;BMP180;9980;51.020;7.772;2022-10-18T09:34:58;98596.00;;;20.40
19666;BMP180;9980;51.020;7.772;2022-10-18T09:37:31;98592.00;;;20.40
19666;BMP180;9980;51.020;7.772;2022-10-18T09:40:22;98581.00;;;20.50
19666;BMP180;9980;51.020;7.772;2022-10-18T09:43:09;98597.00;;;20.50
19666;BMP180;9980;51.020;7.772;2022-10-18T09:45:43;98602.00;;;20.50
19666;BMP180;9980;51.020;7.772;2022-10-18T09:48:37;98582.00;;;20.50
19666;BMP180;9980;51.020;7.772;2022-10-18T09:51:20;98581.00;;;20.60
19666;BMP180;9980;51.020;7.772;2022-10-18T09:54:07;98583.00;;;20.60
19666;BMP180;9980;51.020;7.772;2022-10-18T09:56:55;98592.00;;;20.60
19666;BMP180;9980;51.020;7.772;2022-10-18T09:59:42;98605.00;;;20.70
19666;BMP180;9980;51.020;7.772;2022-10-18T10:02:18;98596.00;;;20.70
19666;BMP180;9980;51.020;7.772;2022-10-18T10:04:46;98607.00;;;20.80
19666;BMP180;9980;51.020;7.772;2022-10-18T10:07:18;98607.00;;;20.80
19666;BMP180;9980;51.020;7.772;2022-10-18T10:09:55;98614.00;;;20.80
19666;BMP180;9980;51.020;7.772;2022-10-18T10:12:32;98602.00;;;20.80
19666;BMP180;9980;51.020;7.772;2022-10-18T10:15:23;98620.00;;;20.80
19666;BMP180;9980;51.020;7.772;2022-10-18T10:18:05;98617.00;;;20.90
19666;BMP180;9980;51.020;7.772;2022-10-18T10:20:44;98610.00;;;20.90
19666;BMP180;9980;51.020;7.772;2022-10-18T10:23:35;98620.00;;;20.90
19666;BMP180;9980;51.020;7.772;2022-10-18T10:26:33;98615.00;;;20.90
19666;BMP180;9980;51.020;7.772;2022-10-18T10:29:00;98620.00;;;21.00
19666;BMP180;9980;51.020;7.772;2022-10-18T10:31:31;98623.00;;;21.00
19666;BMP180;9980;51.020;7.772;2022-10-18T10:36:50;98624.00;;;21.00
19666;BMP180;9980;51.020;7.772;2022-10-18T10:39:20;98611.00;;;21.10
19666;BMP180;9980;51.020;7.772;2022-10-18T10:41:56;98620.00;;;21.20
19666;BMP180;9980;51.020;7.772;2022-10-18T10:44:31;98617.00;;;21.20
19666;BMP180;9980;51.020;7.772;2022-10-18T10:47:02;98618.00;;;21.30
19666;BMP180;9980;51.020;7.772;2022-10-18T10:49:46;98616.00;;;21.30
19666;BMP180;9980;51.020;7.772;2022-10-18T10:52:19;98617.00;;;21.40
19666;BMP180;9980;51.020;7.772;2022-10-18T10:55:05;98620.00;;;21.40
19666;BMP180;9980;51.020;7.772;2022-10-18T10:58:00;98613.00;;;21.50
19666;BMP180;9980;51.020;7.772;2022-10-18T11:00:43;98609.00;;;21.50
19666;BMP180;9980;51.020;7.772;2022-10-18T11:03:16;98623.00;;;21.60
19666;BMP180;9980;51.020;7.772;2022-10-18T11:05:56;98613.00;;;21.70
19666;BMP180;9980;51.020;7.772;2022-10-18T11:08:34;98623.00;;;21.80
19666;BMP180;9980;51.020;7.772;2022-10-18T11:11:18;98612.00;;;21.80
19666;BMP180;9980;51.020;7.772;2022-10-18T11:13:58;98611.00;;;21.90
19666;BMP180;9980;51.020;7.772;2022-10-18T11:23:28;98614.00;;;22.20
19666;BMP180;9980;51.020;7.772;2022-10-18T11:26:11;98609.00;;;22.30
19666;BMP180;9980;51.020;7.772;2022-10-18T11:29:40;98611.00;;;22.40
19666;BMP180;9980;51.020;7.772;2022-10-18T11:32:35;98591.00;;;22.50
19666;BMP180;9980;51.020;7.772;2022-10-18T11:35:31;98609.00;;;22.60
19666;BMP180;9980;51.020;7.772;2022-10-18T11:38:30;98591.00;;;22.70
19666;BMP180;9980;51.020;7.772;2022-10-18T11:41:28;98589.00;;;22.80
19666;BMP180;9980;51.020;7.772;2022-10-18T11:44:02;98593.00;;;22.90
19666;BMP180;9980;51.020;7.772;2022-10-18T11:46:47;98593.00;;;23.00
19666;BMP180;9980;51.020;7.772;2022-10-18T11:49:47;98608.00;;;23.00
19666;BMP180;9980;51.020;7.772;2022-10-18T11:52:43;98605.00;;;23.10
19666;BMP180;9980;51.020;7.772;2022-10-18T11:55:36;98596.00;;;23.10
19666;BMP180;9980;51.020;7.772;2022-10-18T11:58:29;98607.00;;;23.10
19666;BMP180;9980;51.020;7.772;2022-10-18T12:01:23;98609.00;;;23.10
19666;BMP180;9980;51.020;7.772;2022-10-18T12:04:13;98589.00;;;23.10
19666;BMP180;9980;51.020;7.772;2022-10-18T12:06:47;98591.00;;;23.10
19666;BMP180;9980;51.020;7.772;2022-10-18T12:09:40;98590.00;;;23.10
19666;BMP180;9980;51.020;7.772;2022-10-18T12:14:52;98597.00;;;23.20
19666;BMP180;9980;51.020;7.772;2022-10-18T12:17:37;98573.00;;;23.20
19666;BMP180;9980;51.020;7.772;2022-10-18T12:20:26;98597.00;;;23.30
19666;BMP180;9980;51.020;7.772;2022-10-18T12:23:15;98581.00;;;23.30
19666;BMP180;9980;51.020;7.772;2022-10-18T12:25:51;98569.00;;;23.40
19666;BMP180;9980;51.020;7.772;2022-10-18T12:33:40;98569.00;;;23.70
19666;BMP180;9980;51.020;7.772;2022-10-18T12:39:52;98578.00;;;23.80
19666;BMP180;9980;51.020;7.772;2022-10-18T12:42:48;98579.00;;;23.90
19666;BMP180;9980;51.020;7.772;2022-10-18T12:45:31;98578.00;;;24.00
19666;BMP180;9980;51.020;7.772;2022-10-18T12:48:07;98576.00;;;24.10
19666;BMP180;9980;51.020;7.772;2022-10-18T12:51:05;98577.00;;;24.10
19666;BMP180;9980;51.020;7.772;2022-10-18T12:53:33;98578.00;;;24.10
19666;BMP180;9980;51.020;7.772;2022-10-18T13:10:34;98567.00;;;23.90
19666;BMP180;9980;51.020;7.772;2022-10-18T13:13:25;98547.00;;;23.90
19666;BMP180;9980;51.020;7.772;2022-10-18T13:19:58;98563.00;;;23.90
19666;BMP180;9980;51.020;7.772;2022-10-18T13:23:23;98553.00;;;23.90
19666;BMP180;9980;51.020;7.772;2022-10-18T13:29:04;98546.00;;;24.00
19666;BMP180;9980;51.020;7.772;2022-10-18T13:34:31;98562.00;;;24.00
19666;BMP180;9980;51.020;7.772;2022-10-18T13:39:38;98565.00;;;24.10
19666;BMP180;9980;51.020;7.772;2022-10-18T13:44:42;98551.00;;;24.10
19666;BMP180;9980;51.020;7.772;2022-10-18T13:47:31;98559.00;;;24.00
19666;BMP180;9980;51.020;7.772;2022-10-18T13:50:31;98566.00;;;24.00
19666;BMP180;9980;51.020;7.772;2022-10-18T13:55:56;98576.00;;;23.90
19666;BMP180;9980;51.020;7.772;2022-10-18T14:04:46;98580.00;;;23.70
19666;BMP180;9980;51.020;7.772;2022-10-18T14:07:43;98575.00;;;23.60
19666;BMP180;9980;51.020;7.772;2022-10-18T14:10:25;98560.00;;;23.50
19666;BMP180;9980;51.020;7.772;2022-10-18T14:13:22;98571.00;;;23.50
19666;BMP180;9980;51.020;7.772;2022-10-18T14:15:55;98578.00;;;23.40
19666;BMP180;9980;51.020;7.772;2022-10-18T14:18:35;98578.00;;;23.30
19666;BMP180;9980;51.020;7.772;2022-10-18T14:21:17;98584.00;;;23.30
19666;BMP180;9980;51.020;7.772;2022-10-18T14:23:49;98583.00;;;23.20
19666;BMP180;9980;51.020;7.772;2022-10-18T14:26:19;98579.00;;;23.20
19666;BMP180;9980;51.020;7.772;2022-10-18T14:29:05;98599.00;;;23.00
19666;BMP180;9980;51.020;7.772;2022-10-18T14:31:34;98573.00;;;23.00
19666;BMP180;9980;51.020;7.772;2022-10-18T14:34:02;98595.00;;;23.00
19666;BMP180;9980;51.020;7.772;2022-10-18T14:36:39;98586.00;;;22.90
19666;BMP180;9980;51.020;7.772;2022-10-18T14:39:20;98593.00;;;22.90
19666;BMP180;9980;51.020;7.772;2022-10-18T14:41:54;98598.00;;;22.80
19666;BMP180;9980;51.020;7.772;2022-10-18T14:44:29;98598.00;;;22.80
19666;BMP180;9980;51.020;7.772;2022-10-18T14:47:19;98604.00;;;22.70
19666;BMP180;9980;51.020;7.772;2022-10-18T14:49:48;98587.00;;;22.70
19666;BMP180;9980;51.020;7.772;2022-10-18T14:52:19;98595.00;;;22.60
19666;BMP180;9980;51.020;7.772;2022-10-18T14:54:54;98590.00;;;22.60
19666;BMP180;9980;51.020;7.772;2022-10-18T14:57:28;98596.00;;;22.60
19666;BMP180;9980;51.020;7.772;2022-10-18T15:00:25;98584.00;;;22.50
19666;BMP180;9980;51.020;7.772;2022-10-18T15:02:55;98594.00;;;22.50
19666;BMP180;9980;51.020;7.772;2022-10-18T15:05:24;98590.00;;;22.50
19666;BMP180;9980;51.020;7.772;2022-10-18T15:07:52;98602.00;;;22.40
19666;BMP180;9980;51.020;7.772;2022-10-18T15:10:26;98596.00;;;22.40
19666;BMP180;9980;51.020;7.772;2022-10-18T15:12:57;98601.00;;;22.30
19666;BMP180;9980;51.020;7.772;2022-10-18T15:15:37;98592.00;;;22.30
19666;BMP180;9980;51.020;7.772;2022-10-18T15:18:05;98603.00;;;22.30
19666;BMP180;9980;51.020;7.772;2022-10-18T15:20:36;98602.00;;;22.20
19666;BMP180;9980;51.020;7.772;2022-10-18T15:23:22;98621.00;;;22.10
19666;BMP180;9980;51.020;7.772;2022-10-18T15:26:03;98596.00;;;22.10
19666;BMP180;9980;51.020;7.772;2022-10-18T15:28:40;98614.00;;;22.00
19666;BMP180;9980;51.020;7.772;2022-10-18T15:31:29;98607.00;;;22.00
19666;BMP180;9980;51.020;7.772;2022-10-18T15:34:22;98609.00;;;21.90
19666;BMP180;9980;51.020;7.772;2022-10-18T15:36:53;98614.00;;;21.90
19666;BMP180;9980;51.020;7.772;2022-10-18T15:39:27;98615.00;;;21.90
19666;BMP180;9980;51.020;7.772;2022-10-18T15:42:00;98611.00;;;21.80
19666;BMP180;9980;51.020;7.772;2022-10-18T15:44:46;98615.00;;;21.80
19666;BMP180;9980;51.020;7.772;2022-10-18T15:47:16;98614.00;;;21.80
19666;BMP180;9980;51.020;7.772;2022-10-18T15:49:59;98608.00;;;21.70
19666;BMP180;9980;51.020;7.772;2022-10-18T15:52:35;98618.00;;;21.60
19666;BMP180;9980;51.020;7.772;2022-10-18T16:01:02;98615.00;;;21.50
19666;BMP180;9980;51.020;7.772;2022-10-18T16:03:34;98617.00;;;21.50
19666;BMP180;9980;51.020;7.772;2022-10-18T16:06:08;98635.00;;;21.40
19666;BMP180;9980;51.020;7.772;2022-10-18T16:08:50;98630.00;;;21.40
19666;BMP180;9980;51.020;7.772;2022-10-18T16:11:23;98621.00;;;21.30
19666;BMP180;9980;51.020;7.772;2022-10-18T16:13:52;98633.00;;;21.30
19666;BMP180;9980;51.020;7.772;2022-10-18T16:16:27;98622.00;;;21.20
19666;BMP180;9980;51.020;7.772;2022-10-18T16:18:55;98638.00;;;21.20
19666;BMP180;9980;51.020;7.772;2022-10-18T16:21:29;98637.00;;;21.10
19666;BMP180;9980;51.020;7.772;2022-10-18T16:23:57;98623.00;;;21.10
19666;BMP180;9980;51.020;7.772;2022-10-18T16:26:26;98641.00;;;21.00
19666;BMP180;9980;51.020;7.772;2022-10-18T16:28:54;98630.00;;;20.90
19666;BMP180;9980;51.020;7.772;2022-10-18T16:31:25;98643.00;;;20.80
19666;BMP180;9980;51.020;7.772;2022-10-18T16:33:54;98641.00;;;20.80
19666;BMP180;9980;51.020;7.772;2022-10-18T16:36:31;98643.00;;;20.70
19666;BMP180;9980;51.020;7.772;2022-10-18T16:39:02;98644.00;;;20.60
19666;BMP180;9980;51.020;7.772;2022-10-18T16:41:30;98642.00;;;20.50
19666;BMP180;9980;51.020;7.772;2022-10-18T16:43:56;98662.00;;;20.40
19666;BMP180;9980;51.020;7.772;2022-10-18T16:46:28;98647.00;;;20.30
19666;BMP180;9980;51.020;7.772;2022-10-18T16:48:55;98661.00;;;20.30
19666;BMP180;9980;51.020;7.772;2022-10-18T16:51:23;98669.00;;;20.10
19666;BMP180;9980;51.020;7.772;2022-10-18T16:53:50;98657.00;;;20.10